No particular awareness of the weather is required.    There are no Weather-warnings


Meteo18 Weather Cam more information Meteo18 Weather Cam


Thunder radar more information blitzortung!


Rain radar more information rain snow radar


Visit our other weather sites:

Template documentation
and downloads

And another site



Weather Underground History page Text

Daily Summary for September 29, 2017 Units:  English    Metric   Both
« Previous Day
Next Day »
Daily Weekly Monthly Yearly Custom
  High: Low: Average:
Temperature: TemperatureC °F 12.9 °F 18.5 °F
Dew Point: DewpointC °F 12.1 °F 14.4 °F
Humidity: Humidity % 49 % 79 %
Wind Speed: WindSpeedKMH mph 0.0 mph 1.5 mph
Wind Gust: WindSpeedGustKMH mph - -
Wind:- - SW
Pressure: PressurehPa in 1019.2 in -
Precipitation: 0.0 in    
Historical Graphs
 
 
Tabular Data for September 29, 2017
Time Temperature Dew Point Pressure Wind Wind Speed Wind Gust Humidity Rainfall Rate (Hourly)
TemperatureC °F DewpointC °F PressurehPa in Calm     Humidity % HourlyPrecipMM in
00:02 15.3 °F 14.2 °F 1023.6 in Calm   3.2 mph 93 % 0.0 in
00:12 15.3 °F 14.3 °F 1023.6 in Calm   1.6 mph 94 % 0.0 in
00:17 15.3 °F 14.3 °F 1023.6 in Calm     94 % 0.0 in
00:22 15.3 °F 14.2 °F 1023.6 in Calm     93 % 0.0 in
00:32 15.2 °F 14.1 °F 1023.6 in Calm     93 % 0.0 in
00:42 15.2 °F 14.1 °F 1023.6 in Calm     93 % 0.0 in
00:47 15.1 °F 14.0 °F 1023.6 in Calm     93 % 0.0 in
00:57 14.9 °F 13.8 °F 1023.6 in Calm     93 % 0.0 in
01:02 14.8 °F 13.8 °F 1023.6 in Calm     94 % 0.0 in
01:12 14.8 °F 13.8 °F 1023.2 in Calm     94 % 0.0 in
01:17 14.8 °F 13.8 °F 1023.2 in Calm     94 % 0.0 in
01:27 14.6 °F 13.6 °F 1023.2 in Calm     94 % 0.0 in
01:32 14.7 °F 13.9 °F 1023.2 in Calm     95 % 0.0 in
01:37 14.7 °F 13.7 °F 1023.2 in Calm     94 % 0.0 in
01:42 14.6 °F 13.8 °F 1023.2 in Calm     95 % 0.0 in
01:52 14.6 °F 13.8 °F 1023.2 in Calm     95 % 0.0 in
01:57 14.6 °F 13.8 °F 1023.2 in Calm     95 % 0.0 in
02:02 14.4 °F 13.6 °F 1023.2 in Calm     95 % 0.0 in
02:12 14.2 °F 13.4 °F 1023.2 in Calm     95 % 0.0 in
02:17 14.2 °F 13.4 °F 1023.2 in Calm     95 % 0.0 in
02:22 14.2 °F 13.4 °F 1023.2 in Calm     95 % 0.0 in
02:32 14.1 °F 13.3 °F 1023.2 in Calm     95 % 0.0 in
02:42 14.2 °F 13.6 °F 1023.2 in Calm     96 % 0.0 in
02:47 14.4 °F 13.8 °F 1023.2 in Calm     96 % 0.0 in
02:52 14.4 °F 13.8 °F 1023.2 in Calm     96 % 0.0 in
02:57 14.4 °F 13.8 °F 1023.2 in Calm     96 % 0.0 in
03:02 14.5 °F 13.7 °F 1023.2 in Calm     95 % 0.0 in
03:12 14.4 °F 13.6 °F 1022.9 in Calm     95 % 0.0 in
03:17 14.4 °F 13.6 °F 1022.9 in Calm     95 % 0.0 in
03:22 14.5 °F 13.7 °F 1022.9 in Calm     95 % 0.0 in
03:32 14.2 °F 13.4 °F 1022.9 in Calm     95 % 0.0 in
03:37 14.3 °F 13.5 °F 1022.9 in Calm     95 % 0.0 in
03:42 14.4 °F 13.6 °F 1022.9 in Calm     95 % 0.0 in
03:47 14.4 °F 13.6 °F 1022.9 in Calm     95 % 0.0 in
03:52 14.5 °F 13.7 °F 1022.9 in Calm     95 % 0.0 in
03:57 14.6 °F 13.8 °F 1022.9 in Calm     95 % 0.0 in
04:02 14.6 °F 13.8 °F 1022.9 in Calm     95 % 0.0 in
04:12 14.5 °F 13.5 °F 1022.9 in Calm     94 % 0.0 in
04:17 14.6 °F 13.6 °F 1022.9 in Calm     94 % 0.0 in
04:22 14.7 °F 13.7 °F 1022.6 in Calm     94 % 0.0 in
04:27 14.7 °F 13.6 °F 1022.6 in Calm     93 % 0.0 in
04:32 14.8 °F 13.7 °F 1022.6 in Calm     93 % 0.0 in
04:42 14.6 °F 13.1 °F 1022.6 in Calm     91 % 0.0 in
04:47 14.3 °F 13.0 °F 1022.6 in Calm     92 % 0.0 in
04:52 14.2 °F 13.1 °F 1022.6 in Calm     93 % 0.0 in
05:02 14.2 °F 13.2 °F 1022.6 in Calm     94 % 0.0 in
05:22 14.2 °F 13.2 °F 1022.2 in Calm     94 % 0.0 in
05:32 14.2 °F 13.2 °F 1022.2 in Calm     94 % 0.0 in
05:37 14.1 °F 13.1 °F 1022.2 in Calm     94 % 0.0 in
05:42 14.0 °F 13.0 °F 1022.2 in Calm     94 % 0.0 in
05:52 13.8 °F 12.9 °F 1022.2 in Calm     94 % 0.0 in
05:57 13.7 °F 12.8 °F 1022.2 in Calm     94 % 0.0 in
06:02 13.6 °F 12.7 °F 1022.2 in Calm     94 % 0.0 in
06:12 13.6 °F 12.8 °F 1022.2 in Calm     95 % 0.0 in
06:17 13.6 °F 12.8 °F 1022.6 in Calm     95 % 0.0 in
06:22 13.6 °F 12.8 °F 1022.6 in Calm     95 % 0.0 in
06:32 13.6 °F 12.8 °F 1022.6 in Calm     95 % 0.0 in
06:37 13.6 °F 12.8 °F 1022.6 in Calm     95 % 0.0 in
06:42 13.6 °F 12.8 °F 1022.6 in Calm     95 % 0.0 in
06:47 13.6 °F 12.8 °F 1022.6 in Calm     95 % 0.0 in
06:52 13.6 °F 12.8 °F 1022.6 in Calm     95 % 0.0 in
07:02 13.6 °F 12.8 °F 1022.2 in Calm     95 % 0.0 in
07:12 13.4 °F 12.6 °F 1022.2 in Calm     95 % 0.0 in
07:17 13.4 °F 12.6 °F 1022.2 in Calm     95 % 0.0 in
07:22 13.4 °F 12.6 °F 1022.6 in Calm     95 % 0.0 in
07:32 13.2 °F 12.4 °F 1022.6 in Calm     95 % 0.0 in
07:37 13.2 °F 12.4 °F 1022.6 in Calm     95 % 0.0 in
07:42 13.3 °F 12.7 °F 1022.6 in Calm     96 % 0.0 in
07:47 13.3 °F 12.5 °F 1022.6 in Calm     95 % 0.0 in
07:52 13.2 °F 12.4 °F 1022.6 in Calm     95 % 0.0 in
08:02 12.9 °F 12.1 °F 1022.6 in Calm     95 % 0.0 in
08:12 13.2 °F 12.6 °F 1022.9 in Calm     96 % 0.0 in
08:17 13.2 °F 12.4 °F 1022.9 in Calm     95 % 0.0 in
08:22 13.2 °F 12.4 °F 1022.9 in Calm     95 % 0.0 in
08:32 13.4 °F 12.6 °F 1022.9 in Calm     95 % 0.0 in
08:37 13.4 °F 12.6 °F 1022.9 in Calm     95 % 0.0 in
08:42 13.6 °F 12.8 °F 1022.9 in Calm     95 % 0.0 in
08:47 13.7 °F 12.9 °F 1022.9 in Calm     95 % 0.0 in
08:52 13.7 °F 12.9 °F 1022.9 in Calm     95 % 0.0 in
09:02 14.0 °F 13.2 °F 1022.9 in Calm     95 % 0.0 in
09:12 14.2 °F 13.4 °F 1022.9 in Calm     95 % 0.0 in
09:17 14.2 °F 13.2 °F 1022.9 in Calm     94 % 0.0 in
09:22 14.2 °F 13.2 °F 1022.9 in Calm     94 % 0.0 in
09:32 14.3 °F 13.3 °F 1022.9 in Calm     94 % 0.0 in
09:47 14.7 °F 13.6 °F 1022.9 in Calm     93 % 0.0 in
09:52 14.9 °F 13.6 °F 1022.9 in Calm     92 % 0.0 in
10:02 15.4 °F 14.1 °F 1022.9 in Calm     92 % 0.0 in
10:12 16.2 °F 14.6 °F 1022.9 in Calm   3.2 mph 90 % 0.0 in
10:17 16.7 °F 15.1 °F 1022.9 in Calm   3.2 mph 90 % 0.0 in
10:22 16.9 °F 14.9 °F 1022.9 in SSE 1.6 mph 3.2 mph 88 % 0.0 in
10:27 17.1 °F 14.9 °F 1022.9 in Calm   3.2 mph 87 % 0.0 in
10:32 17.4 °F 15.4 °F 1022.9 in Calm   3.2 mph 88 % 0.0 in
10:42 18.1 °F 15.5 °F 1022.9 in SSW 1.6 mph 3.2 mph 85 % 0.0 in
10:47 18.1 °F 15.5 °F 1022.9 in SSE 3.2 mph 6.4 mph 85 % 0.0 in
10:52 18.2 °F 15.5 °F 1022.9 in SW 4.8 mph 6.4 mph 84 % 0.0 in
11:02 18.4 °F 15.6 °F 1022.9 in SE 1.6 mph 6.4 mph 84 % 0.0 in
11:12 18.9 °F 16.1 °F 1022.9 in SSW 4.8 mph 6.4 mph 84 % 0.0 in
11:17 19.3 °F 16.0 °F 1022.9 in SSW 3.2 mph 8.0 mph 81 % 0.0 in
11:22 19.4 °F 16.1 °F 1022.9 in WSW 4.8 mph 8.0 mph 81 % 0.0 in
11:32 19.6 °F 15.9 °F 1022.6 in SW 8.0 mph 8.0 mph 79 % 0.0 in
11:37 19.7 °F 16.0 °F 1022.6 in SW 3.2 mph 8.0 mph 79 % 0.0 in
11:42 19.9 °F 15.9 °F 1022.6 in SW 1.6 mph 8.0 mph 78 % 0.0 in
11:47 20.3 °F 16.1 °F 1022.6 in SW 1.6 mph 8.0 mph 77 % 0.0 in
11:52 20.4 °F 16.2 °F 1022.6 in SW 4.8 mph 8.0 mph 77 % 0.0 in
11:57 20.7 °F 16.3 °F 1022.2 in WSW 3.2 mph 6.4 mph 76 % 0.0 in
12:02 21.1 °F 16.7 °F 1022.2 in Calm   6.4 mph 76 % 0.0 in
12:07 21.4 °F 16.6 °F 1022.2 in SSW 1.6 mph 4.8 mph 74 % 0.0 in
12:12 21.7 °F 16.4 °F 1022.2 in SE 3.2 mph 4.8 mph 72 % 0.0 in
12:17 21.8 °F 16.3 °F 1022.2 in Calm   3.2 mph 71 % 0.0 in
12:22 21.9 °F 16.4 °F 1022.2 in Calm   3.2 mph 71 % 0.0 in
12:32 21.9 °F 16.4 °F 1022.2 in Calm   4.8 mph 71 % 0.0 in
12:37 22.2 °F 16.7 °F 1021.9 in SSW 3.2 mph 4.8 mph 71 % 0.0 in
12:42 22.5 °F 16.3 °F 1021.9 in Calm   8.0 mph 68 % 0.0 in
12:47 22.8 °F 16.1 °F 1021.9 in South 6.4 mph 8.0 mph 66 % 0.0 in
12:57 22.9 °F 15.5 °F 1021.9 in South 4.8 mph 11.3 mph 63 % 0.0 in
13:02 23.1 °F 15.7 °F 1021.9 in West 1.6 mph 11.3 mph 63 % 0.0 in
13:12 23.3 °F 15.4 °F 1021.6 in SW 8.0 mph 14.5 mph 61 % 0.0 in
13:17 23.4 °F 15.7 °F 1021.6 in SSW 8.0 mph 14.5 mph 62 % 0.0 in
13:22 23.4 °F 15.7 °F 1021.6 in SSW 4.8 mph 16.1 mph 62 % 0.0 in
13:32 23.6 °F 15.9 °F 1021.6 in West 6.4 mph 16.1 mph 62 % 0.0 in
13:42 23.6 °F 15.4 °F 1021.6 in SSW 6.4 mph 14.5 mph 60 % 0.0 in
13:52 23.8 °F 15.6 °F 1021.6 in SW 9.7 mph 14.5 mph 60 % 0.0 in
14:02 24.0 °F 15.5 °F 1021.2 in SSW 4.8 mph 12.9 mph 59 % 0.0 in
14:07 24.2 °F 15.1 °F 1021.2 in SSW 4.8 mph 12.9 mph 57 % 0.0 in
14:12 24.3 °F 15.2 °F 1021.2 in SE 6.4 mph 14.5 mph 57 % 0.0 in
14:22 24.5 °F 15.7 °F 1020.9 in WSW 1.6 mph 16.1 mph 58 % 0.0 in
14:32 24.5 °F 15.1 °F 1020.9 in WSW 6.4 mph 12.9 mph 56 % 0.0 in
14:42 24.6 °F 15.2 °F 1020.9 in SW 6.4 mph 14.5 mph 56 % 0.0 in
14:47 24.7 °F 15.3 °F 1020.5 in SW 1.6 mph 14.5 mph 56 % 0.0 in
14:52 24.8 °F 15.1 °F 1020.5 in WNW 1.6 mph 14.5 mph 55 % 0.0 in
15:02 25.2 °F 14.9 °F 1020.5 in SW 3.2 mph 14.5 mph 53 % 0.0 in
15:12 25.0 °F 15.0 °F 1020.5 in SSW 4.8 mph 14.5 mph 54 % 0.0 in
15:17 25.1 °F 15.4 °F 1020.5 in WSW 8.0 mph 14.5 mph 55 % 0.0 in
15:22 25.1 °F 15.1 °F 1020.5 in Calm   16.1 mph 54 % 0.0 in
15:32 25.3 °F 15.3 °F 1020.5 in WSW 9.7 mph 16.1 mph 54 % 0.0 in
15:42 25.3 °F 14.4 °F 1020.5 in SSW 4.8 mph 16.1 mph 51 % 0.0 in
15:47 25.3 °F 14.4 °F 1020.2 in West 6.4 mph 16.1 mph 51 % 0.0 in
15:57 25.2 °F 14.6 °F 1020.2 in WSW 8.0 mph 16.1 mph 52 % 0.0 in
16:02 25.2 °F 14.3 °F 1020.2 in SW 3.2 mph 16.1 mph 51 % 0.0 in
16:12 25.3 °F 14.7 °F 1020.2 in WSW 6.4 mph 14.5 mph 52 % 0.0 in
16:22 25.4 °F 14.5 °F 1020.2 in West 4.8 mph 8.0 mph 51 % 0.0 in
16:32 25.2 °F 14.6 °F 1019.9 in SW 8.0 mph 11.3 mph 52 % 0.0 in
16:42 25.1 °F 14.6 °F 1019.9 in SW 1.6 mph 14.5 mph 52 % 0.0 in
16:47 24.9 °F 14.7 °F 1019.9 in WSW 3.2 mph 14.5 mph 53 % 0.0 in
16:52 24.8 °F 14.9 °F 1019.9 in SW 4.8 mph 11.3 mph 54 % 0.0 in
16:57 24.9 °F 15.5 °F 1019.9 in SW 4.8 mph 11.3 mph 56 % 0.0 in
17:02 25.0 °F 14.8 °F 1019.9 in WSW 3.2 mph 9.7 mph 53 % 0.0 in
17:12 25.6 °F 15.0 °F 1019.9 in Calm   9.7 mph 52 % 0.0 in
17:17 26.2 °F 15.0 °F 1019.9 in Calm   6.4 mph 50 % 0.0 in
17:22 26.4 °F 15.1 °F 1019.9 in SSW 6.4 mph 6.4 mph 50 % 0.0 in
17:27 26.2 °F 14.6 °F 1019.9 in WSW 1.6 mph 8.0 mph 49 % 0.0 in
17:32 26.1 °F 15.2 °F 1019.9 in SW 4.8 mph 8.0 mph 51 % 0.0 in
17:37 25.9 °F 14.7 °F 1019.9 in SW 3.2 mph 9.7 mph 50 % 0.0 in
17:42 25.8 °F 14.6 °F 1019.9 in WSW 6.4 mph 9.7 mph 50 % 0.0 in
17:47 25.5 °F 14.6 °F 1019.5 in West 4.8 mph 9.7 mph 51 % 0.0 in
17:52 25.4 °F 14.8 °F 1019.5 in SW 4.8 mph 9.7 mph 52 % 0.0 in
18:02 25.4 °F 14.2 °F 1019.5 in SW 3.2 mph 8.0 mph 50 % 0.0 in
18:07 25.3 °F 14.4 °F 1019.9 in WSW 3.2 mph 8.0 mph 51 % 0.0 in
18:12 25.5 °F 15.2 °F 1019.5 in SSW 1.6 mph 8.0 mph 53 % 0.0 in
18:17 25.7 °F 15.1 °F 1019.5 in WSW 3.2 mph 8.0 mph 52 % 0.0 in
18:22 25.7 °F 14.8 °F 1019.5 in West 1.6 mph 8.0 mph 51 % 0.0 in
18:32 25.6 °F 14.7 °F 1019.9 in WSW 1.6 mph 8.0 mph 51 % 0.0 in
18:37 25.4 °F 14.5 °F 1019.9 in WSW 3.2 mph 4.8 mph 51 % 0.0 in
18:42 25.0 °F 14.2 °F 1019.9 in SW 4.8 mph 4.8 mph 51 % 0.0 in
18:52 24.5 °F 14.3 °F 1019.9 in WSW 1.6 mph 6.4 mph 53 % 0.0 in
18:57 24.2 °F 14.6 °F 1019.9 in Calm   6.4 mph 55 % 0.0 in
19:02 23.8 °F 15.0 °F 1019.9 in Calm   6.4 mph 58 % 0.0 in
19:12 22.8 °F 15.9 °F 1019.9 in Calm   4.8 mph 65 % 0.0 in
19:17 22.3 °F 15.9 °F 1019.9 in WNW 1.6 mph 1.6 mph 67 % 0.0 in
19:22 21.9 °F 16.0 °F 1019.9 in WNW 1.6 mph 1.6 mph 69 % 0.0 in
19:27 21.6 °F 15.9 °F 1019.9 in WNW 1.6 mph 1.6 mph 70 % 0.0 in
19:32 21.7 °F 16.0 °F 1019.9 in WNW 1.6 mph 3.2 mph 70 % 0.0 in
19:37 21.6 °F 16.1 °F 1019.9 in Calm   3.2 mph 71 % 0.0 in
19:47 21.5 °F 15.3 °F 1020.2 in Calm   1.6 mph 68 % 0.0 in
19:52 21.6 °F 15.2 °F 1020.2 in Calm   1.6 mph 67 % 0.0 in
20:02 21.2 °F 15.5 °F 1020.2 in Calm   3.2 mph 70 % 0.0 in
20:07 21.1 °F 15.4 °F 1020.2 in Calm   3.2 mph 70 % 0.0 in
20:12 21.3 °F 15.2 °F 1019.9 in Calm   3.2 mph 68 % 0.0 in
20:22 20.7 °F 15.5 °F 1020.2 in WNW 3.2 mph   72 % 0.0 in
20:32 19.7 °F 15.3 °F 1019.9 in Calm   3.2 mph 76 % 0.0 in
20:42 19.6 °F 15.5 °F 1019.9 in Calm   3.2 mph 77 % 0.0 in
20:47 19.5 °F 15.6 °F 1019.9 in Calm   1.6 mph 78 % 0.0 in
20:52 19.3 °F 15.4 °F 1019.9 in Calm   1.6 mph 78 % 0.0 in
21:02 19.1 °F 15.4 °F 1019.9 in Calm     79 % 0.0 in
21:12 18.7 °F 15.2 °F 1019.9 in Calm     80 % 0.0 in
21:17 18.3 °F 15.2 °F 1019.9 in Calm     82 % 0.0 in
21:22 18.1 °F 15.2 °F 1019.9 in WNW 1.6 mph 1.6 mph 83 % 0.0 in
21:32 18.1 °F 15.0 °F 1019.9 in Calm   3.2 mph 82 % 0.0 in
21:37 18.2 °F 15.3 °F 1019.5 in Calm   3.2 mph 83 % 0.0 in
21:42 18.2 °F 15.3 °F 1019.5 in Calm   1.6 mph 83 % 0.0 in
21:47 17.9 °F 15.0 °F 1019.5 in WNW 1.6 mph 1.6 mph 83 % 0.0 in
21:52 17.6 °F 15.0 °F 1019.5 in WNW 3.2 mph 3.2 mph 85 % 0.0 in
21:57 17.4 °F 14.9 °F 1019.5 in WNW 1.6 mph 3.2 mph 85 % 0.0 in
22:02 17.6 °F 14.9 °F 1019.9 in WNW 1.6 mph 3.2 mph 84 % 0.0 in
22:12 17.4 °F 15.0 °F 1019.5 in Calm   3.2 mph 86 % 0.0 in
22:17 17.4 °F 15.0 °F 1019.5 in Calm   1.6 mph 86 % 0.0 in
22:22 17.5 °F 14.9 °F 1019.9 in Calm   1.6 mph 85 % 0.0 in
22:27 17.5 °F 14.9 °F 1019.9 in WNW 1.6 mph   85 % 0.0 in
22:32 17.4 °F 14.9 °F 1019.5 in Calm   1.6 mph 85 % 0.0 in
22:42 17.7 °F 15.3 °F 1019.5 in North 1.6 mph 1.6 mph 86 % 0.0 in
22:47 17.6 °F 15.0 °F 1019.9 in Calm   3.2 mph 85 % 0.0 in
22:52 17.5 °F 15.1 °F 1019.9 in NNW 1.6 mph 3.2 mph 86 % 0.0 in
22:57 17.3 °F 14.9 °F 1019.9 in Calm   1.6 mph 86 % 0.0 in
23:02 17.1 °F 14.9 °F 1019.5 in Calm   1.6 mph 87 % 0.0 in
23:12 17.1 °F 14.7 °F 1019.5 in Calm   1.6 mph 86 % 0.0 in
23:17 17.2 °F 14.8 °F 1019.5 in North 1.6 mph 1.6 mph 86 % 0.0 in
23:32 17.6 °F 14.9 °F 1019.2 in Calm   1.6 mph 84 % 0.0 in
23:42 17.3 °F 14.9 °F 1019.2 in Calm   1.6 mph 86 % 0.0 in
23:52 17.2 °F 14.8 °F 1019.2 in WNW 1.6 mph 1.6 mph 86 % 0.0 in
23:57 17.0 °F 14.8 °F 1019.2 in Calm     87 % 0.0 in
Meteo18
Compliments of Weather Underground - 4 mb

Script developed by  Jim McMurry - jmcmurry@mwt.net Adapted for the template by  Wim van der Kuil - Leuven-Template.eu

You find our weather info also at:

European Weather Network

Weather Underground

Equipment we use:

Weather-station
Davis Vue

Weather-program
Meteobridge

Weather-server
Raspberry PI 2 B+

Provider
1 and 1

Davis Vue

Meteobridge

Raspberry PI 2 B+

1 and 1